createdAt,value
2019-05-26T00:04:57.277Z,100961.98
2019-05-26T00:10:01.487Z,100967.89
2019-05-26T00:15:06.187Z,100956.23
2019-05-26T00:20:10.960Z,100958.19
2019-05-26T00:25:15.603Z,100948.87
2019-05-26T00:30:20.410Z,100956.47
2019-05-26T00:35:24.607Z,100946.91
2019-05-26T00:40:28.806Z,100942.84
2019-05-26T00:45:33.225Z,100946.56
2019-05-26T00:50:37.449Z,100933.23
2019-05-26T00:55:41.628Z,100922.64
2019-05-26T01:00:46.019Z,100928.51
2019-05-26T01:05:50.233Z,100935.52
2019-05-26T01:10:54.421Z,100924.58
2019-05-26T01:15:58.629Z,100927.27
2019-05-26T01:21:02.827Z,100920.80
2019-05-26T01:26:07.072Z,100919.68
2019-05-26T01:31:11.321Z,100920.44
2019-05-26T01:36:15.911Z,100920.82
2019-05-26T01:41:20.163Z,100922.22
2019-05-26T01:46:24.357Z,100931.69
2019-05-26T01:51:28.541Z,100927.73
2019-05-26T01:56:32.750Z,100925.86
2019-05-26T02:01:36.957Z,100921.05
2019-05-26T02:06:41.152Z,100922.09
2019-05-26T02:11:45.370Z,100925.49
2019-05-26T02:16:49.569Z,100926.02
2019-05-26T02:21:53.805Z,100913.88
2019-05-26T02:26:58.041Z,100906.06
2019-05-26T02:32:02.239Z,100919.02
2019-05-26T02:37:06.454Z,100903.56
2019-05-26T02:42:10.923Z,100912.99
2019-05-26T02:47:15.114Z,100914.25
2019-05-26T02:52:19.332Z,100916.92
2019-05-26T02:57:23.504Z,100916.25
2019-05-26T03:02:27.939Z,100916.34
2019-05-26T03:07:33.141Z,100918.13
2019-05-26T03:12:41.816Z,100921.70
2019-05-26T03:17:47.792Z,100919.33
2019-05-26T03:22:54.155Z,100913.38
2019-05-26T03:27:58.364Z,100917.85
2019-05-26T03:33:02.807Z,100915.81
2019-05-26T03:38:06.999Z,100913.30
2019-05-26T03:43:11.194Z,100913.85
2019-05-26T03:48:15.424Z,100918.78
2019-05-26T03:53:19.613Z,100918.98
2019-05-26T03:58:23.819Z,100923.53
2019-05-26T04:03:28.203Z,100929.06
2019-05-26T04:08:32.400Z,100928.47
2019-05-26T04:13:36.594Z,100916.94
2019-05-26T04:18:40.891Z,100922.71
2019-05-26T04:23:45.084Z,100912.19
2019-05-26T04:28:49.322Z,100909.22
2019-05-26T04:33:53.547Z,100905.83
2019-05-26T04:38:57.774Z,100903.83
2019-05-26T04:44:01.972Z,100901.24
2019-05-26T04:49:06.171Z,100906.42
2019-05-26T04:54:10.361Z,100893.69
2019-05-26T04:59:14.699Z,100899.23
2019-05-26T05:04:18.897Z,100895.89
2019-05-26T05:09:23.091Z,100897.89
2019-05-26T05:14:27.283Z,100889.19
2019-05-26T05:19:31.489Z,100883.38
2019-05-26T05:24:35.706Z,100889.16
2019-05-26T05:29:39.913Z,100881.64
2019-05-26T05:34:44.096Z,100878.32
2019-05-26T05:39:48.292Z,100877.91
2019-05-26T05:44:52.489Z,100876.06
2019-05-26T05:49:56.667Z,100870.23
2019-05-26T05:55:00.870Z,100876.38
2019-05-26T06:00:06.469Z,100866.21
2019-05-26T06:05:10.957Z,100866.85
2019-05-26T06:10:15.575Z,100869.38
2019-05-26T06:15:19.833Z,100856.09
2019-05-26T06:20:24.067Z,100858.02
2019-05-26T06:25:28.324Z,100851.85
2019-05-26T06:30:32.526Z,100845.89
2019-05-26T06:35:36.793Z,100847.53
2019-05-26T06:40:41.115Z,100844.81
2019-05-26T06:45:45.317Z,100853.94
2019-05-26T06:50:49.513Z,100847.64
2019-05-26T06:55:53.748Z,100849.10
2019-05-26T07:00:57.915Z,100848.66
2019-05-26T07:06:02.136Z,100844.08
2019-05-26T07:11:06.415Z,100834.46
2019-05-26T07:16:10.636Z,100826.22
2019-05-26T07:21:14.898Z,100825.77
2019-05-26T07:26:19.126Z,100816.86
2019-05-26T07:31:23.346Z,100813.55
2019-05-26T07:36:27.550Z,100810.63
2019-05-26T07:41:31.759Z,100808.10
2019-05-26T07:46:36.007Z,100791.76
2019-05-26T07:51:40.215Z,100789.81
2019-05-26T07:56:44.452Z,100794.44
2019-05-26T08:01:48.691Z,100794.80
2019-05-26T08:06:52.905Z,100795.45
2019-05-26T08:11:57.119Z,100788.72
2019-05-26T08:17:01.374Z,100797.38
2019-05-26T08:22:05.582Z,100786.41
2019-05-26T08:27:09.788Z,100785.68
2019-05-26T08:32:15.115Z,100772.33
2019-05-26T08:37:19.615Z,100769.02
2019-05-26T08:42:27.181Z,100756.69
2019-05-26T08:47:29.747Z,100745.42
2019-05-26T08:52:33.959Z,100737.66
2019-05-26T08:57:38.175Z,100733.41
2019-05-26T09:02:42.406Z,100729.36
2019-05-26T09:07:46.605Z,100730.97
2019-05-26T09:13:00.246Z,100719.05
2019-05-26T09:17:56.843Z,100718.78
2019-05-26T09:23:01.180Z,100703.09
2019-05-26T09:28:05.594Z,100705.01
2019-05-26T09:33:09.818Z,100691.97
2019-05-26T09:38:14.016Z,100692.48
2019-05-26T09:43:18.228Z,100683.72
2019-05-26T09:48:22.467Z,100676.86
2019-05-26T09:53:26.681Z,100687.69
2019-05-26T09:58:30.882Z,100668.02
2019-05-26T10:03:35.392Z,100662.45
2019-05-26T10:08:39.628Z,100659.70
2019-05-26T10:13:43.876Z,100655.78
2019-05-26T10:18:48.120Z,100654.04
2019-05-26T10:23:53.318Z,100643.98
2019-05-26T10:29:00.584Z,100646.58
2019-05-26T10:34:03.753Z,100621.09
2019-05-26T10:39:08.982Z,100642.45
2019-05-26T10:44:13.195Z,100626.89
2019-05-26T10:49:17.397Z,100626.89
2019-05-26T10:54:21.595Z,100616.97
2019-05-26T10:59:25.827Z,100616.35
2019-05-26T11:04:30.038Z,100616.63
2019-05-26T11:09:34.247Z,100616.63
2019-05-26T11:14:38.444Z,100599.27
2019-05-26T11:19:42.645Z,100586.86
2019-05-26T11:24:46.882Z,100580.38
2019-05-26T11:29:51.083Z,100587.38
2019-05-26T11:35:01.592Z,100572.82
2019-05-26T11:40:01.238Z,100575.16
2019-05-26T11:45:06.328Z,100566.66
2019-05-26T11:50:11.281Z,100562.03
2019-05-26T11:55:15.688Z,100554.86
2019-05-26T12:00:21.207Z,100549.41
2019-05-26T12:05:25.412Z,100542.43
2019-05-26T12:10:29.627Z,100532.87
2019-05-26T12:15:33.893Z,100532.68
2019-05-26T12:20:38.172Z,100524.14
2019-05-26T12:25:42.654Z,100513.68
2019-05-26T12:30:47.098Z,100528.22
2019-05-26T12:35:51.353Z,100515.37
2019-05-26T12:40:55.563Z,100518.09
2019-05-26T12:45:59.768Z,100517.66
2019-05-26T12:51:03.991Z,100506.36
2019-05-26T12:56:08.208Z,100506.59
2019-05-26T13:01:12.492Z,100511.13
2019-05-26T13:06:17.702Z,100494.73
2019-05-26T13:11:22.865Z,100492.05
2019-05-26T13:16:27.286Z,100475.18
2019-05-26T13:21:31.511Z,100484.77
2019-05-26T13:26:35.689Z,100493.20
2019-05-26T13:31:39.920Z,100462.86
2019-05-26T13:36:44.529Z,100478.55
2019-05-26T13:41:48.732Z,100468.51
2019-05-26T13:46:52.987Z,100476.89
2019-05-26T13:51:57.257Z,100473.92
2019-05-26T13:57:01.462Z,100474.66
2019-05-26T14:02:05.767Z,100475.41
2019-05-26T14:07:10.017Z,100477.33
2019-05-26T14:12:14.210Z,100475.25
2019-05-26T14:17:18.707Z,100467.98
2019-05-26T14:22:22.933Z,100452.33
2019-05-26T14:27:27.278Z,100468.13
2019-05-26T14:32:31.507Z,100470.36
2019-05-26T14:37:35.774Z,100472.09
2019-05-26T14:42:39.997Z,100472.39
2019-05-26T14:47:44.235Z,100470.38
2019-05-26T14:52:48.433Z,100466.17
2019-05-26T14:57:52.767Z,100472.03
2019-05-26T15:02:57.174Z,100473.15
2019-05-26T15:08:01.654Z,100459.17
2019-05-26T15:13:07.027Z,100460.77
2019-05-26T15:18:11.201Z,100455.70
2019-05-26T15:23:15.419Z,100455.40
2019-05-26T15:28:19.646Z,100463.15
2019-05-26T15:33:23.886Z,100460.98
2019-05-26T15:38:42.009Z,100455.39
2019-05-26T15:43:34.127Z,100456.69
2019-05-26T15:48:38.477Z,100467.52
2019-05-26T15:53:42.691Z,100460.22
2019-05-26T15:58:46.919Z,100436.88
2019-05-26T16:03:52.157Z,100434.13
2019-05-26T16:08:56.358Z,100431.81
2019-05-26T16:14:01.278Z,100430.61
2019-05-26T16:19:05.597Z,100427.63
2019-05-26T16:24:09.806Z,100422.19
2019-05-26T16:29:14.059Z,100416.78
2019-05-26T16:34:18.304Z,100409.87
2019-05-26T16:39:36.118Z,100396.32
2019-05-26T16:44:28.702Z,100405.70
2019-05-26T16:49:33.013Z,100400.20
2019-05-26T16:54:37.221Z,100384.78
2019-05-26T16:59:41.424Z,100391.12
2019-05-26T17:04:45.640Z,100357.03
2019-05-26T17:09:49.916Z,100373.55
2019-05-26T17:14:54.131Z,100371.72
2019-05-26T17:19:58.342Z,100367.11
2019-05-26T17:25:02.547Z,100361.91
2019-05-26T17:30:07.628Z,100352.91
2019-05-26T17:35:11.934Z,100352.26
2019-05-26T17:40:16.143Z,100351.41
2019-05-26T17:45:20.835Z,100354.02
2019-05-26T17:50:25.089Z,100350.42
2019-05-26T17:55:29.551Z,100347.71
2019-05-26T18:00:34.632Z,100342.31
2019-05-26T18:05:38.861Z,100338.53
2019-05-26T18:10:44.198Z,100331.09
2019-05-26T18:15:48.576Z,100336.22
2019-05-26T18:20:52.784Z,100331.87
2019-05-26T18:25:57.013Z,100326.88
2019-05-26T18:31:02.386Z,100333.57
2019-05-26T18:36:06.792Z,100324.01
2019-05-26T18:41:11.592Z,100325.51
2019-05-26T18:46:16.178Z,100318.88
2019-05-26T18:51:20.519Z,100327.93
2019-05-26T18:56:24.816Z,100327.83
2019-05-26T19:01:29.056Z,100328.27
2019-05-26T19:06:33.309Z,100326.30
2019-05-26T19:11:37.848Z,100320.05
2019-05-26T19:16:42.885Z,100330.24
2019-05-26T19:21:47.147Z,100326.78
2019-05-26T19:26:51.373Z,100330.67
2019-05-26T19:31:55.686Z,100333.71
2019-05-26T19:36:59.959Z,100331.38
2019-05-26T19:42:06.502Z,100329.78
2019-05-26T19:47:10.802Z,100330.44
2019-05-26T19:52:15.119Z,100327.59
2019-05-26T19:57:19.359Z,100323.28
2019-05-26T20:02:23.719Z,100320.59
2019-05-26T20:07:27.969Z,100318.44
2019-05-26T20:12:32.231Z,100314.66
2019-05-26T20:17:36.469Z,100319.03
2019-05-26T20:22:40.737Z,100315.46
2019-05-26T20:27:44.913Z,100308.78
2019-05-26T20:32:49.128Z,100310.11
2019-05-26T20:37:53.637Z,100311.20
2019-05-26T20:42:57.874Z,100306.55
2019-05-26T20:48:02.088Z,100307.55
2019-05-26T20:53:06.289Z,100305.10
2019-05-26T20:58:10.790Z,100303.45
2019-05-26T21:03:15.005Z,100303.02
2019-05-26T21:08:19.304Z,100299.44
2019-05-26T21:13:23.653Z,100300.11
2019-05-26T21:18:27.846Z,100299.60
2019-05-26T21:23:32.082Z,100300.12
2019-05-26T21:28:36.281Z,100302.05
2019-05-26T21:33:40.498Z,100290.11
2019-05-26T21:38:44.714Z,100287.69
2019-05-26T21:43:48.918Z,100282.58
2019-05-26T21:48:53.125Z,100284.20
2019-05-26T21:53:57.430Z,100283.67
2019-05-26T21:59:01.627Z,100283.18
2019-05-26T22:04:06.388Z,100283.52
2019-05-26T22:09:10.677Z,100279.74
2019-05-26T22:14:14.881Z,100273.98
2019-05-26T22:19:19.091Z,100266.48
2019-05-26T22:24:23.330Z,100255.09
2019-05-26T22:29:27.555Z,100258.36
2019-05-26T22:34:31.769Z,100243.23
2019-05-26T22:39:35.997Z,100239.47
2019-05-26T22:44:40.216Z,100235.41
2019-05-26T22:49:44.439Z,100231.94
2019-05-26T22:54:48.719Z,100222.55
2019-05-26T22:59:52.941Z,100220.34
2019-05-26T23:04:57.156Z,100221.46
2019-05-26T23:10:02.945Z,100219.80
2019-05-26T23:15:08.235Z,100205.73
2019-05-26T23:20:12.826Z,100208.38
2019-05-26T23:25:17.265Z,100202.45
2019-05-26T23:30:21.506Z,100191.58
2019-05-26T23:35:25.706Z,100185.13
2019-05-26T23:40:29.920Z,100185.70
2019-05-26T23:45:34.169Z,100181.69
2019-05-26T23:50:38.394Z,100181.48
2019-05-26T23:55:42.611Z,100180.66
